Time;durP1;ratioP1;P1;durP2;ratioP2;P2;SDS_P1;SDS_P2;PMS_P1;PMS_P2;Temp;Humidity;BMP_temperature;BMP_pressure;BME280_temperature;BME280_humidity;BME280_pressure;Samples;Min_cycle;Max_cycle;Signal;HPM_P1;HPM_P2
2021/12/15 00:00:06;;;;;;;1.20;0.90;;;;;;;;;;5043775;28;20452;-89
2021/12/15 00:02:32;;;;;;;2.07;1.90;;;;;;;;;;5047768;28;20477;-89
2021/12/15 00:04:58;;;;;;;4.23;3.87;;;;;;;;;;5040271;28;20421;-88
2021/12/15 00:07:26;;;;;;;1.90;1.00;;;;;;;;;;5033908;28;20491;-89
2021/12/15 00:09:52;;;;;;;1.77;1.67;;;;;;;;;;5032540;28;20444;-90
2021/12/15 00:12:18;;;;;;;0.80;0.60;;;;;;;;;;5028441;28;20433;-90
2021/12/15 00:14:44;;;;;;;2.70;2.00;;;;;;;;;;5038912;28;20425;-88
2021/12/15 00:17:11;;;;;;;2.40;1.70;;;;;;;;;;5034725;28;20829;-90
2021/12/15 00:19:37;;;;;;;2.83;0.93;;;;;;;;;;5034850;28;20479;-90
2021/12/15 00:22:03;;;;;;;4.83;3.07;;;;;;;;;;5035314;28;20469;-90
2021/12/15 00:24:29;;;;;;;0.93;0.83;;;;;;;;;;5051906;28;20444;-89
2021/12/15 00:26:56;;;;;;;0.80;0.70;;;;;;;;;;5047646;28;20429;-88
2021/12/15 00:29:24;;;;;;;1.93;1.57;;;;;;;;;;5029522;28;20422;-89
2021/12/15 00:31:50;;;;;;;5.27;1.40;;;;;;;;;;5048697;28;20448;-89
2021/12/15 00:34:16;;;;;;;5.63;2.40;;;;;;;;;;5031987;28;20429;-89
2021/12/15 00:36:43;;;;;;;1.20;1.10;;;;;;;;;;5051034;28;20432;-88
2021/12/15 00:39:10;;;;;;;1.27;1.17;;;;;;;;;;5050721;28;20590;-90
2021/12/15 00:41:36;;;;;;;1.00;0.90;;;;;;;;;;5039125;28;20535;-91
2021/12/15 00:44:02;;;;;;;0.80;0.60;;;;;;;;;;5052085;28;20422;-89
2021/12/15 00:46:28;;;;;;;0.80;0.60;;;;;;;;;;5034938;28;20468;-90
2021/12/15 00:48:54;;;;;;;1.17;1.07;;;;;;;;;;5050760;28;20453;-89
2021/12/15 00:51:20;;;;;;;1.50;1.30;;;;;;;;;;5024547;28;20429;-90
2021/12/15 00:53:46;;;;;;;2.63;1.53;;;;;;;;;;5050342;28;20429;-87
2021/12/15 00:56:12;;;;;;;2.23;1.83;;;;;;;;;;5039117;28;20915;-90
2021/12/15 00:58:39;;;;;;;1.10;1.00;;;;;;;;;;5040411;28;20436;-88
2021/12/15 01:01:05;;;;;;;0.80;0.60;;;;;;;;;;5038384;28;20460;-89
2021/12/15 01:03:31;;;;;;;0.80;0.70;;;;;;;;;;5052580;28;20429;-89
2021/12/15 01:06:03;;;;;;;0.90;0.80;;;;;;;;;;5051187;28;20405;-91
2021/12/15 01:08:30;;;;;;;1.63;1.53;;;;;;;;;;5052314;28;20948;-90
2021/12/15 01:21:53;;;;;;;7.33;1.40;;;;;;;;;;5052179;28;20467;-89
2021/12/15 01:24:19;;;;;;;1.57;1.37;;;;;;;;;;5041915;28;20449;-89
2021/12/15 01:26:45;;;;;;;1.00;0.90;;;;;;;;;;5031502;28;20426;-91
2021/12/15 01:29:11;;;;;;;1.13;0.90;;;;;;;;;;5043997;28;20466;-90
2021/12/15 01:31:37;;;;;;;4.20;3.63;;;;;;;;;;5050327;28;20462;-90
2021/12/15 01:34:03;;;;;;;3.70;1.73;;;;;;;;;;5039505;28;20991;-90
2021/12/15 01:36:29;;;;;;;13.20;1.53;;;;;;;;;;5051986;28;20421;-89
2021/12/15 01:38:56;;;;;;;1.27;1.13;;;;;;;;;;5037473;28;20438;-90
2021/12/15 01:41:23;;;;;;;1.60;1.37;;;;;;;;;;5051466;28;20615;-90
2021/12/15 01:49:22;;;;;;;1.63;1.53;;;;;;;;;;5046376;28;20484;-89
2021/12/15 01:51:48;;;;;;;1.93;1.50;;;;;;;;;;5051664;28;20480;-89
2021/12/15 01:54:15;;;;;;;1.57;1.47;;;;;;;;;;5044950;28;20457;-90
2021/12/15 01:56:42;;;;;;;1.27;1.07;;;;;;;;;;5049494;28;20417;-90
2021/12/15 01:59:08;;;;;;;0.80;0.60;;;;;;;;;;5036338;28;20491;-89
2021/12/15 02:01:34;;;;;;;1.57;1.47;;;;;;;;;;5050062;28;20479;-89
2021/12/15 02:04:00;;;;;;;2.67;2.53;;;;;;;;;;5033797;28;20528;-89
2021/12/15 02:06:27;;;;;;;0.80;0.60;;;;;;;;;;5051575;28;20421;-90
2021/12/15 02:08:53;;;;;;;0.80;0.70;;;;;;;;;;5051446;28;20494;-90
2021/12/15 02:11:19;;;;;;;0.80;0.60;;;;;;;;;;5050441;28;20437;-91
2021/12/15 02:13:45;;;;;;;0.87;0.77;;;;;;;;;;5026321;28;20422;-92
2021/12/15 02:16:11;;;;;;;3.33;1.97;;;;;;;;;;5019663;28;20505;-93
2021/12/15 02:18:42;;;;;;;1.70;1.60;;;;;;;;;;5036835;28;20438;-89
2021/12/15 02:21:19;;;;;;;0.80;0.60;;;;;;;;;;5054500;28;20465;-88
2021/12/15 02:23:50;;;;;;;1.20;1.10;;;;;;;;;;5036889;28;20436;-89
2021/12/15 02:26:18;;;;;;;2.57;2.47;;;;;;;;;;5054829;28;20464;-89
2021/12/15 02:28:49;;;;;;;1.63;1.53;;;;;;;;;;5033194;28;20524;-89
2021/12/15 02:31:37;;;;;;;2.30;2.20;;;;;;;;;;5044858;28;20434;-89
2021/12/15 02:39:17;;;;;;;2.30;1.13;;;;;;;;;;5048792;28;20424;-88
2021/12/15 02:41:44;;;;;;;1.00;0.90;;;;;;;;;;5033763;28;20635;-89
2021/12/15 02:44:12;;;;;;;1.17;0.90;;;;;;;;;;5051978;28;20432;-89
2021/12/15 02:46:39;;;;;;;1.37;1.27;;;;;;;;;;5053225;28;20421;-89
2021/12/15 02:49:07;;;;;;;1.10;0.90;;;;;;;;;;5033381;28;21020;-88
2021/12/15 02:51:33;;;;;;;1.73;1.43;;;;;;;;;;5053561;28;20827;-88
2021/12/15 02:53:59;;;;;;;0.80;0.60;;;;;;;;;;5054052;28;20915;-88
2021/12/15 02:56:26;;;;;;;0.90;0.80;;;;;;;;;;5051249;28;20789;-90
2021/12/15 02:59:02;;;;;;;1.67;1.57;;;;;;;;;;5053940;28;20768;-90
2021/12/15 03:01:40;;;;;;;0.80;0.70;;;;;;;;;;5051343;28;20552;-91
2021/12/15 03:06:41;;;;;;;0.80;0.70;;;;;;;;;;5053821;28;20929;-90
2021/12/15 03:17:20;;;;;;;2.00;1.90;;;;;;;;;;4986118;28;20591;-89
2021/12/15 03:19:46;;;;;;;1.83;1.73;;;;;;;;;;5030873;28;20437;-90
2021/12/15 03:22:12;;;;;;;1.00;0.90;;;;;;;;;;5044538;28;20964;-89
2021/12/15 03:24:38;;;;;;;2.77;2.60;;;;;;;;;;5049016;28;20808;-90
2021/12/15 03:27:13;;;;;;;1.47;1.37;;;;;;;;;;5037602;28;20960;-91
2021/12/15 03:37:45;;;;;;;1.20;1.10;;;;;;;;;;5044678;28;20451;-91
2021/12/15 03:40:15;;;;;;;0.80;0.60;;;;;;;;;;5047763;28;20458;-90
2021/12/15 03:42:42;;;;;;;1.47;1.17;;;;;;;;;;5035528;28;20489;-89
2021/12/15 03:45:11;;;;;;;0.80;0.60;;;;;;;;;;5054234;28;21396;-91
2021/12/15 03:47:38;;;;;;;0.80;0.60;;;;;;;;;;5035608;28;20439;-92
2021/12/15 03:50:06;;;;;;;0.80;0.60;;;;;;;;;;5043150;28;20426;-90
2021/12/15 03:52:32;;;;;;;1.13;1.03;;;;;;;;;;5053358;28;20436;-89
2021/12/15 03:54:59;;;;;;;1.53;0.97;;;;;;;;;;5052227;28;20893;-88
2021/12/15 03:57:25;;;;;;;1.47;1.37;;;;;;;;;;5042070;28;20525;-89
2021/12/15 03:59:51;;;;;;;1.27;0.97;;;;;;;;;;5052004;28;20791;-90
2021/12/15 04:02:18;;;;;;;0.80;0.60;;;;;;;;;;5051952;28;20468;-89
2021/12/15 04:04:46;;;;;;;1.47;0.80;;;;;;;;;;5033243;28;20925;-90
2021/12/15 04:07:12;;;;;;;1.93;1.27;;;;;;;;;;5053047;28;20421;-88
2021/12/15 04:09:39;;;;;;;0.80;0.70;;;;;;;;;;5048841;28;20657;-90
2021/12/15 04:12:05;;;;;;;1.00;0.90;;;;;;;;;;5035577;28;20436;-88
2021/12/15 04:14:41;;;;;;;3.13;1.17;;;;;;;;;;5049324;28;20529;-90
2021/12/15 04:17:17;;;;;;;2.80;2.70;;;;;;;;;;5040554;28;20545;-90
2021/12/15 04:19:44;;;;;;;3.73;3.13;;;;;;;;;;5030505;28;20727;-89
2021/12/15 04:22:10;;;;;;;0.80;0.50;;;;;;;;;;5034155;28;20519;-89
2021/12/15 04:24:36;;;;;;;0.80;0.70;;;;;;;;;;5052859;28;20454;-90
2021/12/15 04:27:03;;;;;;;0.80;0.60;;;;;;;;;;5035575;28;20456;-89
2021/12/15 04:29:29;;;;;;;3.43;1.53;;;;;;;;;;5052067;28;20444;-89
2021/12/15 04:31:58;;;;;;;1.67;1.10;;;;;;;;;;5052093;28;20455;-90
2021/12/15 04:34:24;;;;;;;0.80;0.60;;;;;;;;;;5047104;28;20426;-90
2021/12/15 04:36:52;;;;;;;2.37;2.20;;;;;;;;;;5040747;28;20452;-88
2021/12/15 04:39:20;;;;;;;0.80;0.80;;;;;;;;;;5032835;28;20417;-89
2021/12/15 04:41:49;;;;;;;3.73;3.53;;;;;;;;;;5048463;28;20541;-91
2021/12/15 04:44:16;;;;;;;1.23;1.13;;;;;;;;;;5032873;28;20798;-89
2021/12/15 04:46:44;;;;;;;0.80;0.60;;;;;;;;;;5046523;28;20436;-90
2021/12/15 04:49:11;;;;;;;3.90;1.30;;;;;;;;;;5040896;28;20510;-89
2021/12/15 04:51:37;;;;;;;2.30;1.50;;;;;;;;;;5046296;28;20508;-90
2021/12/15 04:54:04;;;;;;;0.80;0.70;;;;;;;;;;5048383;28;20438;-88
2021/12/15 04:56:30;;;;;;;1.53;0.70;;;;;;;;;;5048898;28;20441;-89
2021/12/15 04:58:56;;;;;;;2.30;1.23;;;;;;;;;;5052165;28;20440;-89
2021/12/15 05:01:24;;;;;;;2.60;1.63;;;;;;;;;;5051858;28;20468;-89
2021/12/15 05:03:50;;;;;;;4.30;1.83;;;;;;;;;;5051338;28;20437;-86
2021/12/15 05:06:16;;;;;;;0.80;0.70;;;;;;;;;;5047746;28;20444;-89
2021/12/15 05:08:42;;;;;;;2.97;0.90;;;;;;;;;;5033568;28;20811;-89
2021/12/15 05:11:11;;;;;;;4.20;0.93;;;;;;;;;;5051096;28;20470;-88
2021/12/15 05:13:37;;;;;;;1.73;1.63;;;;;;;;;;5049979;28;20441;-90
2021/12/15 05:16:04;;;;;;;1.83;0.97;;;;;;;;;;5051254;28;20519;-90
2021/12/15 05:18:30;;;;;;;1.37;1.27;;;;;;;;;;5038608;28;20518;-89
2021/12/15 05:20:58;;;;;;;1.00;0.90;;;;;;;;;;5051517;28;20433;-88
2021/12/15 05:23:29;;;;;;;0.80;0.70;;;;;;;;;;5032835;28;20449;-88
2021/12/15 05:25:55;;;;;;;1.43;1.33;;;;;;;;;;5027070;28;20437;-88
2021/12/15 05:28:21;;;;;;;1.37;1.20;;;;;;;;;;5033097;28;20440;-88
2021/12/15 05:30:47;;;;;;;1.00;0.80;;;;;;;;;;5046475;28;20437;-87
2021/12/15 05:33:13;;;;;;;0.80;0.60;;;;;;;;;;5041508;28;20916;-89
2021/12/15 05:35:39;;;;;;;3.07;0.83;;;;;;;;;;5050365;28;20448;-88
2021/12/15 05:38:07;;;;;;;2.33;2.20;;;;;;;;;;5047801;28;20495;-89
2021/12/15 05:40:34;;;;;;;1.30;1.20;;;;;;;;;;5030922;28;20449;-88
2021/12/15 05:43:00;;;;;;;2.60;2.40;;;;;;;;;;5048412;28;20864;-91
2021/12/15 05:45:27;;;;;;;1.10;1.00;;;;;;;;;;5025360;28;20520;-88
2021/12/15 05:47:54;;;;;;;2.07;1.97;;;;;;;;;;5048124;28;20964;-88
2021/12/15 05:50:20;;;;;;;3.00;2.83;;;;;;;;;;5032155;28;20921;-89
2021/12/15 05:52:46;;;;;;;1.10;0.90;;;;;;;;;;5052573;28;20525;-87
2021/12/15 05:55:13;;;;;;;1.80;1.20;;;;;;;;;;5029695;28;21016;-88
2021/12/15 05:57:39;;;;;;;4.30;3.33;;;;;;;;;;5051673;28;20443;-87
2021/12/15 06:00:08;;;;;;;1.37;1.27;;;;;;;;;;5052219;28;20452;-88
2021/12/15 06:02:34;;;;;;;1.17;1.07;;;;;;;;;;5043687;28;20493;-90
2021/12/15 06:04:59;;;;;;;5.03;2.30;;;;;;;;;;5053585;28;20437;-89
2021/12/15 06:07:25;;;;;;;3.87;2.83;;;;;;;;;;5052494;28;20444;-87
2021/12/15 06:09:51;;;;;;;6.73;1.07;;;;;;;;;;5026613;28;20460;-89
2021/12/15 06:12:17;;;;;;;0.80;0.60;;;;;;;;;;5035373;28;20445;-88
2021/12/15 06:14:43;;;;;;;1.77;1.17;;;;;;;;;;5052012;28;20433;-87
2021/12/15 06:17:10;;;;;;;0.80;0.60;;;;;;;;;;5046519;28;20538;-88
2021/12/15 06:19:36;;;;;;;1.57;0.90;;;;;;;;;;5045737;28;20492;-89
2021/12/15 06:22:04;;;;;;;0.80;0.60;;;;;;;;;;5049040;28;20590;-89
2021/12/15 06:24:30;;;;;;;0.80;0.60;;;;;;;;;;5053503;28;20502;-89
2021/12/15 06:27:01;;;;;;;3.23;1.93;;;;;;;;;;5041169;28;20583;-89
2021/12/15 06:29:29;;;;;;;2.40;1.63;;;;;;;;;;5050459;28;20432;-89
2021/12/15 06:31:55;;;;;;;1.90;1.70;;;;;;;;;;5052072;28;20924;-89
2021/12/15 06:34:21;;;;;;;1.83;1.73;;;9.10;99.90;;;;;;5049995;28;20473;-89
2021/12/15 06:36:46;;;;;;;2.17;2.07;;;9.30;99.90;;;;;;5043349;28;20445;-85
2021/12/15 06:39:12;;;;;;;3.53;1.93;;;9.30;99.90;;;;;;5036078;28;20182;-90
2021/12/15 06:41:38;;;;;;;4.97;1.87;;;9.30;99.90;;;;;;5045004;28;20214;-89
2021/12/15 06:44:04;;;;;;;26.97;2.03;;;9.30;99.90;;;;;;5037532;28;20190;-88
2021/12/15 06:58:11;;;;;;;0.80;0.70;;;9.30;99.90;;;;;;5041886;28;20791;-88
2021/12/15 07:00:21;;;;;;;2.97;1.57;;;9.30;99.90;;;;;;5042259;28;20430;-88
2021/12/15 07:02:46;;;;;;;1.77;1.40;;;9.30;99.90;;;;;;5022822;28;20567;-88
2021/12/15 07:05:13;;;;;;;1.00;0.77;;;9.30;99.90;;;;;;5043150;28;20517;-88
2021/12/15 07:07:42;;;;;;;1.93;1.83;;;9.30;99.90;;;;;;5047426;28;20650;-88
2021/12/15 07:10:10;;;;;;;0.80;0.60;;;9.30;99.90;;;;;;5052816;28;20429;-88
2021/12/15 07:12:36;;;;;;;1.70;1.00;;;;;;;;;;5052850;28;20433;-88
2021/12/15 07:15:04;;;;;;;0.80;0.67;;;9.30;99.90;;;;;;5040470;28;20496;-88
2021/12/15 07:17:30;;;;;;;0.80;0.73;;;9.30;99.90;;;;;;5047505;28;20463;-89
2021/12/15 07:24:54;;;;;;;4.10;2.30;;;9.30;99.90;;;;;;5051507;28;20522;-88
2021/12/15 07:27:19;;;;;;;1.37;1.27;;;9.30;99.90;;;;;;5046176;28;20452;-90
2021/12/15 07:29:46;;;;;;;6.00;2.20;;;;;;;;;;5035449;28;20426;-89
2021/12/15 07:32:14;;;;;;;4.73;2.40;;;9.30;99.90;;;;;;5048975;28;20265;-89
2021/12/15 07:34:40;;;;;;;0.80;0.60;;;9.40;99.90;;;;;;5047994;28;21023;-88
2021/12/15 07:37:06;;;;;;;1.90;1.77;;;;;;;;;;5049565;28;20464;-87
2021/12/15 07:39:32;;;;;;;0.80;0.70;;;9.40;99.90;;;;;;5043076;28;20293;-87
2021/12/15 07:42:10;;;;;;;0.90;0.80;;;9.40;99.90;;;;;;5052099;28;21008;-87
2021/12/15 07:44:37;;;;;;;1.40;1.00;;;;;;;;;;5050138;28;20649;-87
2021/12/15 07:47:04;;;;;;;1.87;1.77;;;;;;;;;;5038889;28;20502;-87
2021/12/15 07:49:31;;;;;;;1.00;0.90;;;;;;;;;;5033063;28;20528;-88
2021/12/15 07:52:02;;;;;;;0.80;0.70;;;9.30;99.90;;;;;;5049217;28;20519;-87
2021/12/15 07:54:32;;;;;;;1.30;1.20;;;;;;;;;;5044878;28;20453;-87
2021/12/15 07:56:59;;;;;;;2.40;2.23;;;;;;;;;;5048263;28;20441;-86
2021/12/15 07:59:26;;;;;;;0.80;0.70;;;;;;;;;;5052084;28;20508;-87
2021/12/15 08:01:53;;;;;;;0.80;0.80;;;;;;;;;;5043183;28;20564;-88
2021/12/15 08:04:21;;;;;;;4.73;1.27;;;;;;;;;;5048807;28;20536;-87
2021/12/15 08:06:48;;;;;;;2.50;1.17;;;;;;;;;;5032141;28;20475;-88
2021/12/15 08:09:16;;;;;;;1.60;1.33;;;;;;;;;;5045878;28;20957;-89
2021/12/15 08:11:43;;;;;;;0.80;0.60;;;;;;;;;;5031523;28;20437;-88
2021/12/15 08:14:11;;;;;;;1.47;1.33;;;;;;;;;;5050960;28;20528;-87
2021/12/15 08:16:38;;;;;;;1.43;1.20;;;;;;;;;;5046806;28;20568;-88
2021/12/15 08:19:07;;;;;;;1.83;1.03;;;;;;;;;;5043608;28;20445;-87
2021/12/15 08:21:34;;;;;;;0.80;0.60;;;;;;;;;;5045206;28;20531;-88
2021/12/15 08:24:01;;;;;;;0.80;0.60;;;;;;;;;;5049418;28;20469;-87
2021/12/15 08:26:28;;;;;;;2.40;2.30;;;9.20;99.90;;;;;;5049822;28;20458;-87
2021/12/15 08:28:54;;;;;;;1.57;1.47;;;9.40;99.90;;;;;;5027899;28;20445;-87
2021/12/15 08:31:20;;;;;;;0.90;0.80;;;9.40;99.90;;;;;;5021802;28;20852;-90
2021/12/15 08:33:47;;;;;;;1.20;1.10;;;;;;;;;;5045172;28;20456;-89
2021/12/15 08:36:15;;;;;;;1.83;1.73;;;;;;;;;;5038940;28;20183;-81
2021/12/15 08:38:43;;;;;;;2.20;1.73;;;9.30;99.90;;;;;;5038476;28;20896;-79
2021/12/15 08:41:11;;;;;;;0.93;0.80;;;;;;;;;;5019921;28;20465;-88
2021/12/15 08:43:39;;;;;;;3.63;2.50;;;;;;;;;;5045773;28;20564;-92
2021/12/15 08:46:08;;;;;;;0.80;0.60;;;;;;;;;;5046429;28;20441;-90
2021/12/15 08:48:35;;;;;;;2.07;1.50;;;;;;;;;;5037686;28;20441;-84
2021/12/15 08:51:02;;;;;;;2.70;2.20;;;;;;;;;;5019678;28;20517;-82
2021/12/15 08:53:28;;;;;;;1.93;1.63;;;9.40;99.90;;;;;;5038459;28;20446;-85
2021/12/15 08:55:54;;;;;;;1.73;1.63;;;;;;;;;;5040307;28;20456;-83
2021/12/15 08:58:21;;;;;;;4.50;1.93;;;9.30;99.90;;;;;;5048685;28;20278;-85
2021/12/15 09:00:57;;;;;;;1.60;1.50;;;;;;;;;;5038187;28;20460;-82
2021/12/15 09:03:26;;;;;;;1.00;0.90;;;9.40;99.90;;;;;;5044594;28;20480;-82
2021/12/15 09:05:53;;;;;;;2.37;2.17;;;;;;;;;;5036747;28;20429;-79
2021/12/15 09:08:20;;;;;;;1.50;1.00;;;9.30;99.90;;;;;;5038150;28;20525;-85
2021/12/15 09:10:47;;;;;;;1.83;1.37;;;9.50;99.90;;;;;;5026707;28;20439;-83
2021/12/15 09:13:15;;;;;;;0.80;0.60;;;;;;;;;;5020297;28;20468;-80
2021/12/15 09:15:42;;;;;;;2.10;1.90;;;;;;;;;;5036974;28;20535;-81
2021/12/15 09:18:10;;;;;;;3.27;1.27;;;;;;;;;;5044139;28;20963;-85
2021/12/15 09:20:37;;;;;;;1.30;1.20;;;;;;;;;;5046960;28;20933;-85
2021/12/15 09:23:06;;;;;;;1.83;1.73;;;;;;;;;;5035155;28;20484;-82
2021/12/15 09:25:32;;;;;;;1.43;1.33;;;;;;;;;;5048265;28;20441;-81
2021/12/15 09:27:58;;;;;;;1.17;1.00;;;9.50;99.90;;;;;;5047773;28;20433;-82
2021/12/15 09:30:25;;;;;;;1.17;1.00;;;9.70;99.90;;;;;;5040423;28;20529;-83
2021/12/15 09:32:51;;;;;;;0.90;0.77;;;;;;;;;;5044497;28;20853;-83
2021/12/15 09:35:18;;;;;;;0.80;0.70;;;9.60;99.90;;;;;;5023630;28;20452;-84
2021/12/15 09:37:45;;;;;;;5.70;3.40;;;9.70;99.90;;;;;;5041114;28;20929;-82
2021/12/15 09:40:13;;;;;;;1.13;0.70;;;9.80;99.90;;;;;;5042884;28;20808;-85
2021/12/15 09:42:40;;;;;;;0.97;0.87;;;9.80;99.90;;;;;;5036105;28;20486;-86
2021/12/15 09:45:26;;;;;;;1.60;1.50;;;9.80;99.90;;;;;;5039474;28;20444;-80
2021/12/15 09:48:16;;;;;;;1.67;1.27;;;9.80;99.90;;;;;;5025796;28;20502;-85
2021/12/15 09:56:50;;;;;;;3.47;1.27;;;;;;;;;;5040757;28;20829;-85
2021/12/15 10:04:43;;;;;;;0.80;0.60;;;;;;;;;;5051191;28;20451;-83
2021/12/15 10:18:11;;;;;;;3.43;2.03;;;;;;;;;;5046217;28;20514;-83
2021/12/15 10:20:37;;;;;;;1.63;1.53;;;10.00;99.90;;;;;;5034706;28;20439;-78
2021/12/15 10:23:06;;;;;;;0.90;0.70;;;;;;;;;;5050952;28;20480;-85
2021/12/15 10:25:33;;;;;;;0.80;0.70;;;;;;;;;;5034275;28;20434;-82
2021/12/15 10:28:05;;;;;;;1.27;1.17;;;;;;;;;;5042847;28;20548;-82
2021/12/15 10:30:41;;;;;;;0.83;0.77;;;;;;;;;;5052537;28;20453;-84
2021/12/15 10:33:07;;;;;;;0.90;0.73;;;;;;;;;;5047049;28;20433;-83
2021/12/15 10:35:50;;;;;;;0.80;0.60;;;;;;;;;;5040998;28;20442;-84
2021/12/15 10:38:27;;;;;;;1.57;1.47;;;;;;;;;;5045087;28;20206;-83
2021/12/15 10:40:53;;;;;;;1.67;1.13;;;;;;;;;;5051503;28;20433;-83
2021/12/15 10:43:20;;;;;;;0.80;0.50;;;;;;;;;;5051482;28;20534;-83
2021/12/15 10:45:48;;;;;;;1.00;0.83;;;;;;;;;;5051451;28;20280;-84
2021/12/15 10:48:24;;;;;;;1.20;1.00;;;;;;;;;;5051113;28;20534;-83
2021/12/15 10:50:51;;;;;;;4.00;2.73;;;;;;;;;;5049307;28;20432;-84
2021/12/15 10:53:29;;;;;;;0.90;0.77;;;;;;;;;;5051443;28;20436;-83
2021/12/15 10:55:55;;;;;;;3.73;1.00;;;;;;;;;;5050218;28;20576;-83
2021/12/15 10:58:32;;;;;;;1.20;1.07;;;;;;;;;;5050967;28;20528;-83
2021/12/15 11:00:58;;;;;;;2.60;1.33;;;;;;;;;;5042902;28;20464;-83
2021/12/15 11:03:31;;;;;;;1.73;1.43;;;;;;;;;;5032117;28;20600;-83
2021/12/15 11:05:57;;;;;;;0.87;0.67;;;;;;;;;;5049290;28;20433;-84
2021/12/15 11:08:23;;;;;;;1.10;1.00;;;;;;;;;;5048161;28;20792;-83
2021/12/15 11:10:51;;;;;;;0.80;0.70;;;;;;;;;;5033222;28;20851;-83
2021/12/15 11:13:17;;;;;;;1.20;1.10;;;;;;;;;;5048840;28;20441;-83
2021/12/15 11:15:48;;;;;;;1.10;0.90;;;;;;;;;;5027572;28;20535;-83
2021/12/15 11:18:20;;;;;;;1.63;1.30;;;;;;;;;;5032638;28;20464;-84
2021/12/15 11:20:48;;;;;;;3.90;2.47;;;;;;;;;;5051281;28;20865;-84
2021/12/15 11:23:15;;;;;;;1.63;0.80;;;;;;;;;;5033009;28;20496;-84
2021/12/15 11:25:41;;;;;;;1.13;1.03;;;;;;;;;;5049730;28;20433;-84
2021/12/15 11:28:13;;;;;;;0.80;0.60;;;;;;;;;;5049182;28;20447;-84
2021/12/15 11:30:39;;;;;;;0.83;0.60;;;;;;;;;;5049934;28;20260;-83
2021/12/15 11:33:12;;;;;;;1.43;1.13;;;;;;;;;;5048146;28;20929;-83
2021/12/15 11:35:40;;;;;;;1.40;1.30;;;;;;;;;;5049687;28;20429;-84
2021/12/15 11:38:08;;;;;;;1.37;1.27;;;;;;;;;;5050456;28;20433;-84
2021/12/15 11:40:37;;;;;;;2.57;1.87;;;;;;;;;;5047432;28;20445;-84
2021/12/15 11:43:04;;;;;;;4.03;1.43;;;;;;;;;;5044526;28;20478;-85
2021/12/15 11:45:30;;;;;;;0.80;0.60;;;;;;;;;;5036062;28;20480;-85
2021/12/15 11:48:16;;;;;;;0.90;0.70;;;;;;;;;;5028250;28;20859;-84
2021/12/15 11:50:43;;;;;;;0.80;0.60;;;;;;;;;;5041237;28;20441;-86
2021/12/15 11:53:14;;;;;;;0.80;0.60;;;;;;;;;;5044332;28;20526;-84
2021/12/15 11:55:39;;;;;;;1.30;1.10;;;10.40;99.90;;;;;;5022834;28;20442;-85
2021/12/15 11:58:05;;;;;;;1.47;0.80;;;10.40;99.90;;;;;;5049398;28;20491;-84
2021/12/15 12:00:31;;;;;;;2.27;0.80;;;10.30;99.90;;;;;;5043843;28;20602;-83
2021/12/15 12:02:59;;;;;;;0.90;0.80;;;10.20;99.90;;;;;;5049160;28;20641;-83
2021/12/15 12:05:31;;;;;;;0.80;0.60;;;10.10;99.90;;;;;;5039103;28;20441;-83
2021/12/15 12:07:58;;;;;;;0.80;0.60;;;10.00;99.90;;;;;;5044777;28;20476;-83
2021/12/15 12:10:35;;;;;;;2.50;1.40;;;10.00;99.90;;;;;;5038085;28;20467;-86
2021/12/15 12:13:21;;;;;;;1.67;1.57;;;9.90;99.90;;;;;;5026129;28;20445;-84
2021/12/15 12:15:50;;;;;;;0.80;0.53;;;9.90;99.90;;;;;;5034567;28;20838;-83
2021/12/15 12:18:19;;;;;;;1.00;0.90;;;9.90;99.90;;;;;;5030104;28;20992;-84
2021/12/15 12:20:47;;;;;;;1.07;0.97;;;9.80;99.90;;;;;;5031304;28;20522;-83
2021/12/15 12:23:17;;;;;;;0.80;0.57;;;9.80;99.90;;;;;;5048706;28;20923;-83
2021/12/15 12:25:47;;;;;;;1.93;1.43;;;9.80;99.90;;;;;;5047843;28;20513;-83
2021/12/15 12:28:20;;;;;;;0.97;0.83;;;9.80;99.90;;;;;;5030878;28;20490;-82
2021/12/15 12:30:52;;;;;;;0.83;0.77;;;9.70;99.90;;;;;;5035801;28;20524;-81
2021/12/15 12:33:21;;;;;;;1.33;1.23;;;9.70;99.90;;;;;;5028969;28;20875;-83
2021/12/15 12:35:50;;;;;;;1.07;0.97;;;9.70;99.90;;;;;;5046793;28;20976;-82
2021/12/15 12:38:27;;;;;;;2.10;1.90;;;9.60;99.90;;;;;;5047735;28;20437;-83
2021/12/15 12:40:57;;;;;;;2.20;1.20;;;9.60;99.90;;;;;;5029238;28;20457;-85
2021/12/15 12:43:26;;;;;;;1.20;0.70;;;9.50;99.90;;;;;;5046935;28;20481;-83
2021/12/15 12:46:09;;;;;;;1.03;0.93;;;9.60;99.90;;;;;;5041036;28;20444;-83
2021/12/15 12:59:38;;;;;;;0.90;0.80;;;9.60;99.90;;;;;;5040312;28;20444;-84
2021/12/15 13:02:24;;;;;;;1.80;1.67;;;9.60;99.90;;;;;;5026826;28;20425;-83
2021/12/15 13:04:49;;;;;;;0.80;0.70;;;9.60;99.90;;;;;;5023182;28;20899;-83
2021/12/15 13:07:15;;;;;;;1.50;1.40;;;9.60;99.90;;;;;;5042522;28;20461;-83
2021/12/15 13:09:48;;;;;;;2.70;1.97;;;9.60;99.90;;;;;;5019057;28;20375;-83
2021/12/15 13:12:24;;;;;;;5.37;2.93;;;9.60;99.90;;;;;;5047563;28;20190;-83
2021/12/15 13:14:50;;;;;;;0.80;0.80;;;9.60;99.90;;;;;;5043730;28;20440;-83
2021/12/15 13:17:21;;;;;;;0.90;0.80;;;9.60;99.90;;;;;;5039438;28;20473;-83
2021/12/15 13:19:47;;;;;;;1.03;0.90;;;9.60;99.90;;;;;;5037528;28;20499;-85
2021/12/15 13:22:38;;;;;;;2.70;1.03;;;9.60;99.90;;;;;;5040469;28;21935;-85
2021/12/15 13:31:00;;;;;;;1.03;0.93;;;9.70;99.90;;;;;;5044771;28;20815;-84
2021/12/15 13:33:32;;;;;;;0.90;0.73;;;9.70;99.90;;;;;;5025466;28;20452;-83
2021/12/15 13:36:19;;;;;;;0.80;0.50;;;9.70;99.90;;;;;;5031388;28;20479;-85
2021/12/15 13:38:50;;;;;;;0.80;0.60;;;9.70;99.90;;;;;;5049116;28;20439;-84
2021/12/15 13:44:13;;;;;;;0.80;0.70;;;9.60;99.90;;;;;;5042746;28;20855;-82
2021/12/15 13:46:45;;;;;;;1.37;0.90;;;9.60;99.90;;;;;;5049195;28;20474;-83
2021/12/15 13:49:22;;;;;;;1.70;0.77;;;9.70;99.90;;;;;;5040365;28;21082;-84
2021/12/15 13:52:01;;;;;;;1.30;1.03;;;9.60;99.90;;;;;;5036365;28;20434;-82
2021/12/15 13:54:33;;;;;;;0.80;0.60;;;9.50;99.90;;;;;;5048129;28;20448;-83
2021/12/15 13:57:01;;;;;;;0.80;0.60;;;9.50;99.90;;;;;;5049574;28;20525;-84
2021/12/15 13:59:34;;;;;;;0.90;0.70;;;9.50;99.90;;;;;;5049242;28;20433;-85
2021/12/15 14:02:23;;;;;;;0.90;0.80;;;9.40;99.90;;;;;;5045783;28;20441;-83
2021/12/15 14:04:56;;;;;;;1.37;1.27;;;9.40;99.90;;;;;;5027580;28;20449;-84
2021/12/15 14:07:30;;;;;;;0.80;0.70;;;9.40;99.90;;;;;;5048286;28;20444;-85
2021/12/15 14:10:04;;;;;;;0.80;0.60;;;9.40;99.90;;;;;;5049570;28;20432;-88
2021/12/15 14:12:45;;;;;;;0.80;0.70;;;9.40;99.90;;;;;;5049152;28;20443;-86
2021/12/15 14:15:13;;;;;;;0.80;0.60;;;9.40;99.90;;;;;;5041217;28;20409;-84
2021/12/15 14:17:38;;;;;;;0.80;0.60;;;9.40;99.90;;;;;;5053508;28;20444;-83
2021/12/15 14:20:16;;;;;;;0.80;0.53;;;9.40;99.90;;;;;;5035897;28;20421;-84
2021/12/15 14:22:43;;;;;;;0.80;0.60;;;9.30;99.90;;;;;;5045291;28;20656;-85
2021/12/15 14:25:10;;;;;;;2.83;1.03;;;9.20;99.90;;;;;;5022143;28;20523;-87
2021/12/15 14:27:35;;;;;;;0.80;0.60;;;9.20;99.90;;;;;;5052297;28;20548;-84
2021/12/15 14:30:02;;;;;;;1.10;0.73;;;9.10;99.90;;;;;;5056079;28;20849;-84
2021/12/15 14:32:28;;;;;;;1.27;0.90;;;9.10;99.90;;;;;;5053230;28;20241;-84
2021/12/15 14:34:53;;;;;;;0.80;0.60;;;9.10;99.90;;;;;;5052776;28;20801;-84
2021/12/15 14:37:21;;;;;;;0.90;0.80;;;9.10;99.90;;;;;;5049510;28;20186;-83
2021/12/15 14:39:50;;;;;;;0.80;0.70;;;9.00;99.90;;;;;;5040863;28;20562;-84
2021/12/15 14:42:25;;;;;;;1.00;0.90;;;9.00;99.90;;;;;;5039911;28;20534;-85
2021/12/15 14:44:55;;;;;;;1.00;0.80;;;9.00;99.90;;;;;;5036720;28;20524;-84
2021/12/15 14:47:28;;;;;;;0.80;0.50;;;9.00;99.90;;;;;;5051260;28;20525;-85
2021/12/15 14:49:57;;;;;;;0.80;0.60;;;9.00;99.90;;;;;;5043762;28;20450;-85
2021/12/15 14:52:26;;;;;;;1.00;0.70;;;8.90;99.90;;;;;;5043219;28;20434;-84
2021/12/15 14:54:55;;;;;;;0.80;0.70;;;8.90;99.90;;;;;;5038606;28;20445;-85
2021/12/15 14:57:24;;;;;;;0.80;0.60;;;8.90;99.90;;;;;;5047976;28;20442;-85
2021/12/15 15:00:05;;;;;;;1.03;0.93;;;8.80;99.90;;;;;;5043832;28;20429;-84
2021/12/15 15:02:37;;;;;;;1.00;0.90;;;8.80;99.90;;;;;;5049123;28;20832;-83
2021/12/15 15:05:11;;;;;;;1.67;1.20;;;8.70;99.90;;;;;;5047481;28;20441;-84
2021/12/15 15:07:40;;;;;;;0.80;0.70;;;8.70;99.90;;;;;;5051794;28;20464;-82
2021/12/15 15:10:14;;;;;;;0.80;0.60;;;8.60;99.90;;;;;;5044849;28;20533;-83
2021/12/15 15:12:40;;;;;;;0.93;0.80;;;8.70;99.90;;;;;;5046913;28;20535;-83
2021/12/15 15:15:11;;;;;;;0.80;0.60;;;8.70;99.90;;;;;;5048575;28;20940;-84
2021/12/15 15:17:51;;;;;;;1.57;1.03;;;8.80;99.90;;;;;;5048982;28;20460;-82
2021/12/15 15:20:27;;;;;;;0.80;0.60;;;8.80;99.90;;;;;;5042779;28;20475;-84
2021/12/15 15:22:56;;;;;;;0.80;0.60;;;8.80;99.90;;;;;;5045930;28;20476;-84
2021/12/15 15:25:25;;;;;;;0.80;0.70;;;8.80;99.90;;;;;;5045604;28;20489;-84
2021/12/15 15:27:53;;;;;;;1.47;1.27;;;8.80;99.90;;;;;;5043900;28;20453;-83
2021/12/15 15:30:23;;;;;;;0.80;0.70;;;8.80;99.90;;;;;;5047365;28;20436;-85
2021/12/15 15:32:50;;;;;;;1.10;0.83;;;8.80;99.90;;;;;;5045894;28;20507;-84
2021/12/15 15:35:21;;;;;;;0.80;0.60;;;8.80;99.90;;;;;;5050016;28;20425;-84
2021/12/15 15:37:49;;;;;;;0.80;0.70;;;8.80;99.90;;;;;;5049931;28;20421;-82
2021/12/15 15:40:32;;;;;;;0.80;0.60;;;8.80;99.90;;;;;;5045973;28;20434;-83
2021/12/15 15:43:08;;;;;;;1.33;1.23;;;8.80;99.90;;;;;;5048609;28;20476;-83
2021/12/15 15:45:39;;;;;;;1.07;0.97;;;8.80;99.90;;;;;;5042918;28;21019;-83
2021/12/15 15:48:09;;;;;;;0.80;0.60;;;8.70;99.90;;;;;;5049411;28;20998;-83